sensor_id;sensor_type;location;lat;lon;timestamp;P1;durP1;ratioP1;P2;durP2;ratioP2
15482;SDS011;7843;50.330;7.312;2023-06-26T00:00:04;4.05;;;1.92;;
15482;SDS011;7843;50.330;7.312;2023-06-26T00:02:31;5.57;;;2.00;;
15482;SDS011;7843;50.330;7.312;2023-06-26T00:05:01;2.65;;;1.90;;
15482;SDS011;7843;50.330;7.312;2023-06-26T00:07:29;6.90;;;3.13;;
15482;SDS011;7843;50.330;7.312;2023-06-26T00:09:56;2.60;;;1.77;;
15482;SDS011;7843;50.330;7.312;2023-06-26T00:12:24;4.30;;;1.83;;
15482;SDS011;7843;50.330;7.312;2023-06-26T00:14:51;8.32;;;2.33;;
15482;SDS011;7843;50.330;7.312;2023-06-26T00:17:18;4.60;;;2.33;;
15482;SDS011;7843;50.330;7.312;2023-06-26T00:19:45;3.45;;;2.22;;
15482;SDS011;7843;50.330;7.312;2023-06-26T00:22:12;3.63;;;2.10;;
15482;SDS011;7843;50.330;7.312;2023-06-26T00:24:38;3.15;;;1.77;;
15482;SDS011;7843;50.330;7.312;2023-06-26T00:27:06;4.22;;;1.88;;
15482;SDS011;7843;50.330;7.312;2023-06-26T00:29:32;3.28;;;2.35;;
15482;SDS011;7843;50.330;7.312;2023-06-26T00:31:59;5.47;;;2.53;;
15482;SDS011;7843;50.330;7.312;2023-06-26T00:34:26;4.43;;;2.30;;
15482;SDS011;7843;50.330;7.312;2023-06-26T00:36:52;2.22;;;1.63;;
15482;SDS011;7843;50.330;7.312;2023-06-26T00:39:19;3.42;;;2.20;;
15482;SDS011;7843;50.330;7.312;2023-06-26T00:41:46;3.27;;;2.30;;
15482;SDS011;7843;50.330;7.312;2023-06-26T00:44:13;3.78;;;2.08;;
15482;SDS011;7843;50.330;7.312;2023-06-26T00:46:40;3.30;;;2.10;;
15482;SDS011;7843;50.330;7.312;2023-06-26T00:49:07;4.00;;;2.13;;
15482;SDS011;7843;50.330;7.312;2023-06-26T00:51:34;2.63;;;1.90;;
15482;SDS011;7843;50.330;7.312;2023-06-26T00:54:01;3.22;;;2.20;;
15482;SDS011;7843;50.330;7.312;2023-06-26T00:56:28;3.10;;;2.37;;
15482;SDS011;7843;50.330;7.312;2023-06-26T00:58:57;4.90;;;2.57;;
15482;SDS011;7843;50.330;7.312;2023-06-26T01:01:24;5.63;;;2.55;;
15482;SDS011;7843;50.330;7.312;2023-06-26T01:03:53;3.92;;;2.28;;
15482;SDS011;7843;50.330;7.312;2023-06-26T01:06:20;2.97;;;1.90;;
15482;SDS011;7843;50.330;7.312;2023-06-26T01:08:49;4.57;;;2.15;;
15482;SDS011;7843;50.330;7.312;2023-06-26T01:11:17;3.17;;;1.75;;
15482;SDS011;7843;50.330;7.312;2023-06-26T01:13:45;3.78;;;2.67;;
15482;SDS011;7843;50.330;7.312;2023-06-26T01:16:12;4.30;;;2.30;;
15482;SDS011;7843;50.330;7.312;2023-06-26T01:18:40;7.10;;;2.40;;
15482;SDS011;7843;50.330;7.312;2023-06-26T01:21:09;4.70;;;2.10;;
15482;SDS011;7843;50.330;7.312;2023-06-26T01:23:39;4.63;;;2.20;;
15482;SDS011;7843;50.330;7.312;2023-06-26T01:26:26;3.92;;;2.47;;
15482;SDS011;7843;50.330;7.312;2023-06-26T01:28:55;6.35;;;1.98;;
15482;SDS011;7843;50.330;7.312;2023-06-26T01:31:24;2.60;;;1.88;;
15482;SDS011;7843;50.330;7.312;2023-06-26T01:33:53;3.85;;;2.20;;
15482;SDS011;7843;50.330;7.312;2023-06-26T01:36:20;4.28;;;2.20;;
15482;SDS011;7843;50.330;7.312;2023-06-26T01:38:47;3.58;;;2.42;;
15482;SDS011;7843;50.330;7.312;2023-06-26T01:41:14;4.45;;;2.20;;
15482;SDS011;7843;50.330;7.312;2023-06-26T01:46:16;4.15;;;2.00;;
15482;SDS011;7843;50.330;7.312;2023-06-26T01:51:25;4.83;;;2.43;;
15482;SDS011;7843;50.330;7.312;2023-06-26T01:53:56;5.28;;;2.95;;
15482;SDS011;7843;50.330;7.312;2023-06-26T01:56:24;5.00;;;3.20;;
15482;SDS011;7843;50.330;7.312;2023-06-26T01:58:54;3.17;;;2.20;;
15482;SDS011;7843;50.330;7.312;2023-06-26T02:01:22;4.03;;;2.22;;
15482;SDS011;7843;50.330;7.312;2023-06-26T02:03:49;5.20;;;2.27;;
15482;SDS011;7843;50.330;7.312;2023-06-26T02:06:15;4.25;;;2.03;;
15482;SDS011;7843;50.330;7.312;2023-06-26T02:08:42;3.95;;;2.13;;
15482;SDS011;7843;50.330;7.312;2023-06-26T02:11:09;2.75;;;2.00;;
15482;SDS011;7843;50.330;7.312;2023-06-26T02:13:36;4.35;;;2.63;;
15482;SDS011;7843;50.330;7.312;2023-06-26T02:16:02;4.97;;;2.15;;
15482;SDS011;7843;50.330;7.312;2023-06-26T02:18:29;2.95;;;2.10;;
15482;SDS011;7843;50.330;7.312;2023-06-26T02:20:56;4.93;;;2.38;;
15482;SDS011;7843;50.330;7.312;2023-06-26T02:23:23;3.28;;;2.00;;
15482;SDS011;7843;50.330;7.312;2023-06-26T02:25:49;4.95;;;2.28;;
15482;SDS011;7843;50.330;7.312;2023-06-26T02:28:16;3.38;;;1.98;;
15482;SDS011;7843;50.330;7.312;2023-06-26T02:30:43;4.43;;;2.50;;
15482;SDS011;7843;50.330;7.312;2023-06-26T02:33:09;6.47;;;2.88;;
15482;SDS011;7843;50.330;7.312;2023-06-26T02:35:36;2.55;;;1.60;;
15482;SDS011;7843;50.330;7.312;2023-06-26T02:38:03;4.15;;;2.60;;
15482;SDS011;7843;50.330;7.312;2023-06-26T02:40:30;4.20;;;2.38;;
15482;SDS011;7843;50.330;7.312;2023-06-26T02:42:57;3.78;;;2.10;;
15482;SDS011;7843;50.330;7.312;2023-06-26T02:45:24;3.38;;;1.98;;
15482;SDS011;7843;50.330;7.312;2023-06-26T02:47:50;3.85;;;2.30;;
15482;SDS011;7843;50.330;7.312;2023-06-26T02:50:17;3.57;;;2.20;;
15482;SDS011;7843;50.330;7.312;2023-06-26T02:52:44;4.22;;;2.70;;
15482;SDS011;7843;50.330;7.312;2023-06-26T02:55:14;4.15;;;2.40;;
15482;SDS011;7843;50.330;7.312;2023-06-26T02:57:40;3.35;;;2.22;;
15482;SDS011;7843;50.330;7.312;2023-06-26T03:00:07;3.53;;;2.30;;
15482;SDS011;7843;50.330;7.312;2023-06-26T03:02:35;3.15;;;1.92;;
15482;SDS011;7843;50.330;7.312;2023-06-26T03:05:02;3.40;;;1.95;;
15482;SDS011;7843;50.330;7.312;2023-06-26T03:07:30;4.18;;;2.70;;
15482;SDS011;7843;50.330;7.312;2023-06-26T03:09:57;3.83;;;2.13;;
15482;SDS011;7843;50.330;7.312;2023-06-26T03:12:25;3.50;;;2.10;;
15482;SDS011;7843;50.330;7.312;2023-06-26T03:14:51;3.78;;;2.08;;
15482;SDS011;7843;50.330;7.312;2023-06-26T03:17:18;3.40;;;2.10;;
15482;SDS011;7843;50.330;7.312;2023-06-26T03:19:45;4.53;;;2.45;;
15482;SDS011;7843;50.330;7.312;2023-06-26T03:22:11;4.00;;;2.10;;
15482;SDS011;7843;50.330;7.312;2023-06-26T03:24:38;5.27;;;2.00;;
15482;SDS011;7843;50.330;7.312;2023-06-26T03:27:05;4.05;;;2.00;;
15482;SDS011;7843;50.330;7.312;2023-06-26T03:29:32;6.55;;;2.60;;
15482;SDS011;7843;50.330;7.312;2023-06-26T03:31:58;4.35;;;2.50;;
15482;SDS011;7843;50.330;7.312;2023-06-26T03:34:25;3.72;;;2.38;;
15482;SDS011;7843;50.330;7.312;2023-06-26T03:36:52;3.50;;;2.13;;
15482;SDS011;7843;50.330;7.312;2023-06-26T03:39:19;4.30;;;2.33;;
15482;SDS011;7843;50.330;7.312;2023-06-26T03:41:45;2.80;;;2.10;;
15482;SDS011;7843;50.330;7.312;2023-06-26T03:44:12;4.30;;;2.83;;
15482;SDS011;7843;50.330;7.312;2023-06-26T03:46:39;4.32;;;2.20;;
15482;SDS011;7843;50.330;7.312;2023-06-26T03:49:06;3.85;;;2.38;;
15482;SDS011;7843;50.330;7.312;2023-06-26T03:51:34;3.97;;;2.05;;
15482;SDS011;7843;50.330;7.312;2023-06-26T03:54:01;4.88;;;2.15;;
15482;SDS011;7843;50.330;7.312;2023-06-26T03:56:28;5.10;;;2.90;;
15482;SDS011;7843;50.330;7.312;2023-06-26T03:58:54;3.15;;;1.98;;
15482;SDS011;7843;50.330;7.312;2023-06-26T04:01:21;4.13;;;2.60;;
15482;SDS011;7843;50.330;7.312;2023-06-26T04:03:48;3.70;;;2.22;;
15482;SDS011;7843;50.330;7.312;2023-06-26T04:06:15;4.63;;;2.85;;
15482;SDS011;7843;50.330;7.312;2023-06-26T04:08:41;4.90;;;2.60;;
15482;SDS011;7843;50.330;7.312;2023-06-26T04:11:08;4.78;;;2.30;;
15482;SDS011;7843;50.330;7.312;2023-06-26T04:13:35;5.40;;;2.63;;
15482;SDS011;7843;50.330;7.312;2023-06-26T04:16:01;3.72;;;2.28;;
15482;SDS011;7843;50.330;7.312;2023-06-26T04:18:28;4.82;;;2.55;;
15482;SDS011;7843;50.330;7.312;2023-06-26T04:21:06;5.03;;;2.85;;
15482;SDS011;7843;50.330;7.312;2023-06-26T04:23:40;4.20;;;2.10;;
15482;SDS011;7843;50.330;7.312;2023-06-26T04:26:07;5.72;;;2.40;;
15482;SDS011;7843;50.330;7.312;2023-06-26T04:28:35;4.85;;;2.72;;
15482;SDS011;7843;50.330;7.312;2023-06-26T04:31:02;4.70;;;2.70;;
15482;SDS011;7843;50.330;7.312;2023-06-26T04:33:32;4.30;;;2.58;;
15482;SDS011;7843;50.330;7.312;2023-06-26T04:35:58;4.38;;;2.30;;
15482;SDS011;7843;50.330;7.312;2023-06-26T04:38:29;5.18;;;2.08;;
15482;SDS011;7843;50.330;7.312;2023-06-26T04:40:57;3.95;;;2.13;;
15482;SDS011;7843;50.330;7.312;2023-06-26T04:43:24;3.00;;;2.10;;
15482;SDS011;7843;50.330;7.312;2023-06-26T04:45:51;6.00;;;2.47;;
15482;SDS011;7843;50.330;7.312;2023-06-26T04:48:18;4.90;;;2.22;;
15482;SDS011;7843;50.330;7.312;2023-06-26T04:50:45;3.22;;;2.08;;
15482;SDS011;7843;50.330;7.312;2023-06-26T04:53:22;5.80;;;2.47;;
15482;SDS011;7843;50.330;7.312;2023-06-26T04:55:50;2.50;;;2.00;;
15482;SDS011;7843;50.330;7.312;2023-06-26T04:58:17;3.07;;;1.93;;
15482;SDS011;7843;50.330;7.312;2023-06-26T05:00:44;3.53;;;2.03;;
15482;SDS011;7843;50.330;7.312;2023-06-26T05:03:11;3.57;;;2.23;;
15482;SDS011;7843;50.330;7.312;2023-06-26T05:05:39;4.53;;;2.05;;
15482;SDS011;7843;50.330;7.312;2023-06-26T05:08:13;3.30;;;2.00;;
15482;SDS011;7843;50.330;7.312;2023-06-26T05:10:49;3.78;;;2.00;;
15482;SDS011;7843;50.330;7.312;2023-06-26T05:13:16;3.88;;;2.53;;
15482;SDS011;7843;50.330;7.312;2023-06-26T05:15:45;3.95;;;2.08;;
15482;SDS011;7843;50.330;7.312;2023-06-26T05:18:12;8.27;;;2.38;;
15482;SDS011;7843;50.330;7.312;2023-06-26T05:20:39;2.85;;;2.28;;
15482;SDS011;7843;50.330;7.312;2023-06-26T05:23:06;2.95;;;2.00;;
15482;SDS011;7843;50.330;7.312;2023-06-26T05:25:33;3.65;;;2.25;;
15482;SDS011;7843;50.330;7.312;2023-06-26T05:28:00;4.13;;;2.40;;
15482;SDS011;7843;50.330;7.312;2023-06-26T05:30:27;5.72;;;2.67;;
15482;SDS011;7843;50.330;7.312;2023-06-26T05:32:54;3.90;;;2.22;;
15482;SDS011;7843;50.330;7.312;2023-06-26T05:35:21;4.05;;;2.40;;
15482;SDS011;7843;50.330;7.312;2023-06-26T05:37:49;3.60;;;2.10;;
15482;SDS011;7843;50.330;7.312;2023-06-26T05:40:17;5.07;;;2.45;;
15482;SDS011;7843;50.330;7.312;2023-06-26T05:42:45;5.20;;;2.00;;
15482;SDS011;7843;50.330;7.312;2023-06-26T05:45:12;3.28;;;2.30;;
15482;SDS011;7843;50.330;7.312;2023-06-26T05:47:38;5.70;;;2.58;;
15482;SDS011;7843;50.330;7.312;2023-06-26T05:50:06;3.63;;;2.40;;
15482;SDS011;7843;50.330;7.312;2023-06-26T05:52:33;3.42;;;2.22;;
15482;SDS011;7843;50.330;7.312;2023-06-26T05:55:01;3.20;;;2.00;;
15482;SDS011;7843;50.330;7.312;2023-06-26T05:57:29;5.68;;;2.50;;
15482;SDS011;7843;50.330;7.312;2023-06-26T05:59:56;4.57;;;1.92;;
15482;SDS011;7843;50.330;7.312;2023-06-26T06:02:24;4.32;;;2.65;;
15482;SDS011;7843;50.330;7.312;2023-06-26T06:04:50;5.35;;;2.30;;
15482;SDS011;7843;50.330;7.312;2023-06-26T06:07:17;2.78;;;1.90;;
15482;SDS011;7843;50.330;7.312;2023-06-26T06:09:44;3.15;;;2.10;;
15482;SDS011;7843;50.330;7.312;2023-06-26T06:12:11;4.60;;;2.40;;
15482;SDS011;7843;50.330;7.312;2023-06-26T06:14:37;3.55;;;2.17;;
15482;SDS011;7843;50.330;7.312;2023-06-26T06:17:04;4.88;;;2.50;;
15482;SDS011;7843;50.330;7.312;2023-06-26T06:19:31;6.13;;;2.80;;
15482;SDS011;7843;50.330;7.312;2023-06-26T06:21:57;3.38;;;2.38;;
15482;SDS011;7843;50.330;7.312;2023-06-26T06:24:24;3.70;;;2.17;;
15482;SDS011;7843;50.330;7.312;2023-06-26T06:26:51;3.50;;;2.10;;
15482;SDS011;7843;50.330;7.312;2023-06-26T06:29:17;4.95;;;2.40;;
15482;SDS011;7843;50.330;7.312;2023-06-26T06:31:45;3.47;;;2.20;;
15482;SDS011;7843;50.330;7.312;2023-06-26T06:34:12;3.87;;;2.10;;
15482;SDS011;7843;50.330;7.312;2023-06-26T06:36:39;3.58;;;2.10;;
15482;SDS011;7843;50.330;7.312;2023-06-26T06:39:06;3.60;;;2.03;;
15482;SDS011;7843;50.330;7.312;2023-06-26T06:41:32;4.88;;;2.45;;
15482;SDS011;7843;50.330;7.312;2023-06-26T06:44:01;7.20;;;2.20;;
15482;SDS011;7843;50.330;7.312;2023-06-26T06:46:27;3.22;;;2.08;;
15482;SDS011;7843;50.330;7.312;2023-06-26T06:48:54;6.07;;;2.42;;
15482;SDS011;7843;50.330;7.312;2023-06-26T06:51:24;4.43;;;2.33;;
15482;SDS011;7843;50.330;7.312;2023-06-26T06:53:50;4.15;;;2.35;;
15482;SDS011;7843;50.330;7.312;2023-06-26T06:56:17;3.22;;;1.85;;
15482;SDS011;7843;50.330;7.312;2023-06-26T06:58:44;5.38;;;2.00;;
15482;SDS011;7843;50.330;7.312;2023-06-26T07:01:12;3.45;;;2.20;;
15482;SDS011;7843;50.330;7.312;2023-06-26T07:03:39;4.35;;;1.98;;
15482;SDS011;7843;50.330;7.312;2023-06-26T07:06:06;3.50;;;1.83;;
15482;SDS011;7843;50.330;7.312;2023-06-26T07:08:33;2.78;;;1.75;;
15482;SDS011;7843;50.330;7.312;2023-06-26T07:11:00;3.10;;;1.73;;
15482;SDS011;7843;50.330;7.312;2023-06-26T07:13:27;4.07;;;1.80;;
15482;SDS011;7843;50.330;7.312;2023-06-26T07:15:54;3.22;;;1.75;;
15482;SDS011;7843;50.330;7.312;2023-06-26T07:18:21;2.97;;;1.95;;
15482;SDS011;7843;50.330;7.312;2023-06-26T07:20:47;4.93;;;1.60;;
15482;SDS011;7843;50.330;7.312;2023-06-26T07:23:14;2.70;;;2.08;;
15482;SDS011;7843;50.330;7.312;2023-06-26T07:25:41;3.58;;;1.92;;
15482;SDS011;7843;50.330;7.312;2023-06-26T07:28:11;3.25;;;1.60;;
15482;SDS011;7843;50.330;7.312;2023-06-26T07:30:38;3.17;;;1.95;;
15482;SDS011;7843;50.330;7.312;2023-06-26T07:33:05;2.97;;;1.38;;
15482;SDS011;7843;50.330;7.312;2023-06-26T07:35:32;2.58;;;1.70;;
15482;SDS011;7843;50.330;7.312;2023-06-26T07:37:59;2.92;;;1.67;;
15482;SDS011;7843;50.330;7.312;2023-06-26T07:40:26;2.75;;;1.65;;
15482;SDS011;7843;50.330;7.312;2023-06-26T07:42:53;2.42;;;1.40;;
15482;SDS011;7843;50.330;7.312;2023-06-26T07:45:24;2.17;;;1.42;;
15482;SDS011;7843;50.330;7.312;2023-06-26T07:47:52;3.15;;;1.33;;
15482;SDS011;7843;50.330;7.312;2023-06-26T07:50:18;3.10;;;1.60;;
15482;SDS011;7843;50.330;7.312;2023-06-26T07:52:48;4.95;;;1.70;;
15482;SDS011;7843;50.330;7.312;2023-06-26T07:55:15;2.13;;;1.45;;
15482;SDS011;7843;50.330;7.312;2023-06-26T07:57:42;3.20;;;1.40;;
15482;SDS011;7843;50.330;7.312;2023-06-26T08:00:09;2.72;;;1.58;;
15482;SDS011;7843;50.330;7.312;2023-06-26T08:02:36;2.50;;;1.40;;
15482;SDS011;7843;50.330;7.312;2023-06-26T08:05:03;2.28;;;1.38;;
15482;SDS011;7843;50.330;7.312;2023-06-26T08:07:30;3.95;;;1.50;;
15482;SDS011;7843;50.330;7.312;2023-06-26T08:09:57;2.90;;;1.40;;
15482;SDS011;7843;50.330;7.312;2023-06-26T08:12:23;3.97;;;1.42;;
15482;SDS011;7843;50.330;7.312;2023-06-26T08:14:50;2.57;;;1.60;;
15482;SDS011;7843;50.330;7.312;2023-06-26T08:17:17;2.17;;;1.48;;
15482;SDS011;7843;50.330;7.312;2023-06-26T08:19:43;3.08;;;1.52;;
15482;SDS011;7843;50.330;7.312;2023-06-26T08:22:10;1.85;;;1.27;;
15482;SDS011;7843;50.330;7.312;2023-06-26T08:24:37;2.65;;;1.55;;
15482;SDS011;7843;50.330;7.312;2023-06-26T08:27:04;2.03;;;1.15;;
15482;SDS011;7843;50.330;7.312;2023-06-26T08:29:30;1.90;;;1.20;;
15482;SDS011;7843;50.330;7.312;2023-06-26T08:31:57;3.35;;;1.23;;
15482;SDS011;7843;50.330;7.312;2023-06-26T08:34:24;2.67;;;1.23;;
15482;SDS011;7843;50.330;7.312;2023-06-26T08:36:51;1.80;;;1.10;;
15482;SDS011;7843;50.330;7.312;2023-06-26T08:39:17;2.20;;;1.13;;
15482;SDS011;7843;50.330;7.312;2023-06-26T08:41:45;4.47;;;1.20;;
15482;SDS011;7843;50.330;7.312;2023-06-26T08:44:11;2.47;;;1.17;;
15482;SDS011;7843;50.330;7.312;2023-06-26T08:46:38;2.70;;;1.30;;
15482;SDS011;7843;50.330;7.312;2023-06-26T08:49:17;1.15;;;0.90;;
15482;SDS011;7843;50.330;7.312;2023-06-26T08:51:51;1.98;;;1.13;;
15482;SDS011;7843;50.330;7.312;2023-06-26T08:54:22;1.85;;;1.08;;
15482;SDS011;7843;50.330;7.312;2023-06-26T08:56:55;2.67;;;1.23;;
15482;SDS011;7843;50.330;7.312;2023-06-26T08:59:23;1.90;;;1.30;;
15482;SDS011;7843;50.330;7.312;2023-06-26T09:01:51;2.20;;;1.33;;
15482;SDS011;7843;50.330;7.312;2023-06-26T09:04:18;2.80;;;1.10;;
15482;SDS011;7843;50.330;7.312;2023-06-26T09:06:45;1.88;;;1.20;;
15482;SDS011;7843;50.330;7.312;2023-06-26T09:09:12;3.38;;;1.48;;
15482;SDS011;7843;50.330;7.312;2023-06-26T09:11:38;2.50;;;1.17;;
15482;SDS011;7843;50.330;7.312;2023-06-26T09:14:05;2.80;;;1.50;;
15482;SDS011;7843;50.330;7.312;2023-06-26T09:16:41;2.67;;;1.40;;
15482;SDS011;7843;50.330;7.312;2023-06-26T09:19:11;2.22;;;1.35;;
15482;SDS011;7843;50.330;7.312;2023-06-26T09:21:39;2.85;;;1.30;;
15482;SDS011;7843;50.330;7.312;2023-06-26T09:24:07;2.38;;;1.20;;
15482;SDS011;7843;50.330;7.312;2023-06-26T09:26:38;2.72;;;1.50;;
15482;SDS011;7843;50.330;7.312;2023-06-26T09:29:06;3.50;;;1.73;;
15482;SDS011;7843;50.330;7.312;2023-06-26T09:31:34;2.95;;;1.40;;
15482;SDS011;7843;50.330;7.312;2023-06-26T09:34:06;3.42;;;2.00;;
15482;SDS011;7843;50.330;7.312;2023-06-26T09:36:33;2.38;;;1.40;;
15482;SDS011;7843;50.330;7.312;2023-06-26T09:39:03;2.63;;;1.50;;
15482;SDS011;7843;50.330;7.312;2023-06-26T09:41:34;1.88;;;1.40;;
15482;SDS011;7843;50.330;7.312;2023-06-26T09:44:02;2.88;;;1.35;;
15482;SDS011;7843;50.330;7.312;2023-06-26T09:46:30;3.20;;;1.40;;
15482;SDS011;7843;50.330;7.312;2023-06-26T09:49:18;2.63;;;1.60;;
15482;SDS011;7843;50.330;7.312;2023-06-26T09:51:44;2.53;;;1.27;;
15482;SDS011;7843;50.330;7.312;2023-06-26T09:54:11;1.55;;;1.25;;
15482;SDS011;7843;50.330;7.312;2023-06-26T09:56:38;1.95;;;1.20;;
15482;SDS011;7843;50.330;7.312;2023-06-26T09:59:05;2.10;;;1.30;;
15482;SDS011;7843;50.330;7.312;2023-06-26T10:01:33;2.70;;;1.75;;
15482;SDS011;7843;50.330;7.312;2023-06-26T10:04:00;5.63;;;1.70;;
15482;SDS011;7843;50.330;7.312;2023-06-26T10:06:33;3.65;;;1.90;;
15482;SDS011;7843;50.330;7.312;2023-06-26T10:09:02;2.97;;;1.63;;
15482;SDS011;7843;50.330;7.312;2023-06-26T10:14:37;2.78;;;1.73;;
15482;SDS011;7843;50.330;7.312;2023-06-26T10:17:13;3.87;;;1.30;;
15482;SDS011;7843;50.330;7.312;2023-06-26T10:19:43;3.25;;;1.38;;
15482;SDS011;7843;50.330;7.312;2023-06-26T10:22:11;1.93;;;1.37;;
15482;SDS011;7843;50.330;7.312;2023-06-26T10:24:41;1.55;;;1.17;;
15482;SDS011;7843;50.330;7.312;2023-06-26T10:27:08;3.10;;;1.65;;
15482;SDS011;7843;50.330;7.312;2023-06-26T10:29:48;3.85;;;1.45;;
15482;SDS011;7843;50.330;7.312;2023-06-26T10:32:18;3.05;;;1.45;;
15482;SDS011;7843;50.330;7.312;2023-06-26T10:34:47;1.53;;;1.30;;
15482;SDS011;7843;50.330;7.312;2023-06-26T10:37:14;3.13;;;1.70;;
15482;SDS011;7843;50.330;7.312;2023-06-26T10:42:17;3.13;;;1.20;;
15482;SDS011;7843;50.330;7.312;2023-06-26T10:44:46;1.38;;;1.00;;
15482;SDS011;7843;50.330;7.312;2023-06-26T10:47:28;1.40;;;1.00;;
15482;SDS011;7843;50.330;7.312;2023-06-26T10:50:17;2.65;;;1.02;;
15482;SDS011;7843;50.330;7.312;2023-06-26T10:53:07;2.90;;;1.20;;
15482;SDS011;7843;50.330;7.312;2023-06-26T11:06:32;5.00;;;0.85;;
15482;SDS011;7843;50.330;7.312;2023-06-26T11:09:05;1.38;;;0.93;;
15482;SDS011;7843;50.330;7.312;2023-06-26T11:14:25;2.10;;;1.10;;
15482;SDS011;7843;50.330;7.312;2023-06-26T11:16:55;1.70;;;1.00;;
15482;SDS011;7843;50.330;7.312;2023-06-26T11:19:23;2.30;;;1.20;;
15482;SDS011;7843;50.330;7.312;2023-06-26T11:21:56;3.95;;;1.30;;
15482;SDS011;7843;50.330;7.312;2023-06-26T11:24:25;1.73;;;0.73;;
15482;SDS011;7843;50.330;7.312;2023-06-26T11:26:52;1.70;;;0.80;;
15482;SDS011;7843;50.330;7.312;2023-06-26T11:29:19;2.05;;;0.95;;
15482;SDS011;7843;50.330;7.312;2023-06-26T11:31:46;1.55;;;0.68;;
15482;SDS011;7843;50.330;7.312;2023-06-26T11:34:13;1.37;;;0.90;;
15482;SDS011;7843;50.330;7.312;2023-06-26T11:36:41;2.55;;;0.82;;
15482;SDS011;7843;50.330;7.312;2023-06-26T11:39:09;0.70;;;0.60;;
15482;SDS011;7843;50.330;7.312;2023-06-26T11:41:36;1.13;;;0.80;;
15482;SDS011;7843;50.330;7.312;2023-06-26T11:44:08;3.50;;;1.00;;
15482;SDS011;7843;50.330;7.312;2023-06-26T11:46:36;2.87;;;0.70;;
15482;SDS011;7843;50.330;7.312;2023-06-26T11:49:04;2.72;;;0.88;;
15482;SDS011;7843;50.330;7.312;2023-06-26T11:51:32;1.48;;;0.65;;
15482;SDS011;7843;50.330;7.312;2023-06-26T11:54:02;2.45;;;0.82;;
15482;SDS011;7843;50.330;7.312;2023-06-26T11:56:30;1.17;;;0.67;;
15482;SDS011;7843;50.330;7.312;2023-06-26T12:01:37;0.52;;;0.47;;
15482;SDS011;7843;50.330;7.312;2023-06-26T12:04:06;1.92;;;0.77;;
15482;SDS011;7843;50.330;7.312;2023-06-26T12:06:34;3.53;;;0.75;;
15482;SDS011;7843;50.330;7.312;2023-06-26T12:09:04;1.80;;;0.77;;
15482;SDS011;7843;50.330;7.312;2023-06-26T12:11:33;1.80;;;0.60;;
15482;SDS011;7843;50.330;7.312;2023-06-26T12:14:01;1.33;;;0.90;;
15482;SDS011;7843;50.330;7.312;2023-06-26T12:16:29;2.60;;;0.70;;
15482;SDS011;7843;50.330;7.312;2023-06-26T12:19:03;1.58;;;0.68;;
15482;SDS011;7843;50.330;7.312;2023-06-26T12:24:04;1.42;;;0.68;;
15482;SDS011;7843;50.330;7.312;2023-06-26T12:26:31;1.70;;;0.80;;
15482;SDS011;7843;50.330;7.312;2023-06-26T12:29:03;0.90;;;0.50;;
15482;SDS011;7843;50.330;7.312;2023-06-26T12:31:31;1.45;;;0.47;;
15482;SDS011;7843;50.330;7.312;2023-06-26T12:33:59;1.60;;;0.40;;
15482;SDS011;7843;50.330;7.312;2023-06-26T12:36:26;1.73;;;0.50;;
15482;SDS011;7843;50.330;7.312;2023-06-26T12:38:53;2.83;;;0.60;;
15482;SDS011;7843;50.330;7.312;2023-06-26T12:41:23;3.00;;;0.80;;
15482;SDS011;7843;50.330;7.312;2023-06-26T12:43:57;1.70;;;0.70;;
15482;SDS011;7843;50.330;7.312;2023-06-26T12:46:33;1.77;;;0.43;;
15482;SDS011;7843;50.330;7.312;2023-06-26T12:49:03;2.47;;;0.65;;
15482;SDS011;7843;50.330;7.312;2023-06-26T12:51:35;2.70;;;0.43;;
15482;SDS011;7843;50.330;7.312;2023-06-26T12:54:02;1.90;;;0.47;;
15482;SDS011;7843;50.330;7.312;2023-06-26T12:56:29;1.52;;;0.68;;
15482;SDS011;7843;50.330;7.312;2023-06-26T12:58:55;1.65;;;0.40;;
15482;SDS011;7843;50.330;7.312;2023-06-26T13:01:22;0.30;;;0.30;;
15482;SDS011;7843;50.330;7.312;2023-06-26T13:03:50;1.85;;;0.50;;
15482;SDS011;7843;50.330;7.312;2023-06-26T13:06:20;1.10;;;0.55;;
15482;SDS011;7843;50.330;7.312;2023-06-26T13:08:47;6.30;;;0.82;;
15482;SDS011;7843;50.330;7.312;2023-06-26T13:11:13;1.20;;;0.57;;
15482;SDS011;7843;50.330;7.312;2023-06-26T13:13:43;1.53;;;0.53;;
15482;SDS011;7843;50.330;7.312;2023-06-26T13:16:10;1.05;;;0.47;;
15482;SDS011;7843;50.330;7.312;2023-06-26T13:18:38;1.10;;;0.63;;
15482;SDS011;7843;50.330;7.312;2023-06-26T13:21:05;1.67;;;0.60;;
15482;SDS011;7843;50.330;7.312;2023-06-26T13:23:32;4.53;;;0.63;;
15482;SDS011;7843;50.330;7.312;2023-06-26T13:25:58;1.52;;;0.55;;
15482;SDS011;7843;50.330;7.312;2023-06-26T13:28:25;2.95;;;1.00;;
15482;SDS011;7843;50.330;7.312;2023-06-26T13:30:52;0.60;;;0.43;;
15482;SDS011;7843;50.330;7.312;2023-06-26T13:33:18;1.10;;;0.55;;
15482;SDS011;7843;50.330;7.312;2023-06-26T13:35:45;3.10;;;0.80;;
15482;SDS011;7843;50.330;7.312;2023-06-26T13:38:12;0.93;;;0.50;;
15482;SDS011;7843;50.330;7.312;2023-06-26T13:40:39;1.55;;;0.70;;
15482;SDS011;7843;50.330;7.312;2023-06-26T13:43:05;1.42;;;0.43;;
15482;SDS011;7843;50.330;7.312;2023-06-26T13:45:32;0.65;;;0.43;;
15482;SDS011;7843;50.330;7.312;2023-06-26T13:47:59;1.25;;;0.60;;
15482;SDS011;7843;50.330;7.312;2023-06-26T13:50:26;1.35;;;0.68;;
15482;SDS011;7843;50.330;7.312;2023-06-26T13:52:56;1.60;;;0.70;;
15482;SDS011;7843;50.330;7.312;2023-06-26T13:55:23;0.70;;;0.50;;
15482;SDS011;7843;50.330;7.312;2023-06-26T13:57:49;1.67;;;0.63;;
15482;SDS011;7843;50.330;7.312;2023-06-26T14:00:16;2.22;;;0.80;;
15482;SDS011;7843;50.330;7.312;2023-06-26T14:02:46;1.23;;;0.40;;
15482;SDS011;7843;50.330;7.312;2023-06-26T14:05:13;1.25;;;0.50;;
15482;SDS011;7843;50.330;7.312;2023-06-26T14:07:40;0.70;;;0.40;;
15482;SDS011;7843;50.330;7.312;2023-06-26T14:10:07;3.03;;;0.68;;
15482;SDS011;7843;50.330;7.312;2023-06-26T14:12:34;2.75;;;0.65;;
15482;SDS011;7843;50.330;7.312;2023-06-26T14:15:00;1.00;;;0.52;;
15482;SDS011;7843;50.330;7.312;2023-06-26T14:17:27;4.05;;;0.65;;
15482;SDS011;7843;50.330;7.312;2023-06-26T14:19:54;2.20;;;0.98;;
15482;SDS011;7843;50.330;7.312;2023-06-26T14:22:21;3.05;;;0.60;;
15482;SDS011;7843;50.330;7.312;2023-06-26T14:24:48;0.75;;;0.40;;
15482;SDS011;7843;50.330;7.312;2023-06-26T14:27:15;1.38;;;0.60;;
15482;SDS011;7843;50.330;7.312;2023-06-26T14:29:42;2.85;;;0.82;;
15482;SDS011;7843;50.330;7.312;2023-06-26T14:32:09;1.83;;;0.82;;
15482;SDS011;7843;50.330;7.312;2023-06-26T14:34:35;1.20;;;0.50;;
15482;SDS011;7843;50.330;7.312;2023-06-26T14:37:02;2.20;;;0.70;;
15482;SDS011;7843;50.330;7.312;2023-06-26T14:39:29;1.70;;;0.70;;
15482;SDS011;7843;50.330;7.312;2023-06-26T14:41:56;2.15;;;0.75;;
15482;SDS011;7843;50.330;7.312;2023-06-26T14:44:22;1.42;;;0.73;;
15482;SDS011;7843;50.330;7.312;2023-06-26T14:46:49;1.02;;;0.57;;
15482;SDS011;7843;50.330;7.312;2023-06-26T14:49:16;1.60;;;0.52;;
15482;SDS011;7843;50.330;7.312;2023-06-26T14:51:43;2.35;;;0.95;;
15482;SDS011;7843;50.330;7.312;2023-06-26T14:54:09;1.73;;;0.60;;
15482;SDS011;7843;50.330;7.312;2023-06-26T14:56:36;0.77;;;0.50;;
15482;SDS011;7843;50.330;7.312;2023-06-26T14:59:03;1.40;;;0.63;;
15482;SDS011;7843;50.330;7.312;2023-06-26T15:01:29;4.55;;;0.60;;
15482;SDS011;7843;50.330;7.312;2023-06-26T15:03:56;9.27;;;0.85;;
15482;SDS011;7843;50.330;7.312;2023-06-26T15:06:23;1.63;;;0.40;;
15482;SDS011;7843;50.330;7.312;2023-06-26T15:08:50;0.63;;;0.43;;
15482;SDS011;7843;50.330;7.312;2023-06-26T15:11:17;2.00;;;0.60;;
15482;SDS011;7843;50.330;7.312;2023-06-26T15:13:44;4.05;;;0.60;;
15482;SDS011;7843;50.330;7.312;2023-06-26T15:16:11;1.80;;;0.50;;
15482;SDS011;7843;50.330;7.312;2023-06-26T15:18:38;2.17;;;0.45;;
15482;SDS011;7843;50.330;7.312;2023-06-26T15:21:06;0.43;;;0.37;;
15482;SDS011;7843;50.330;7.312;2023-06-26T15:23:33;1.08;;;0.52;;
15482;SDS011;7843;50.330;7.312;2023-06-26T15:26:00;1.70;;;0.60;;
15482;SDS011;7843;50.330;7.312;2023-06-26T15:28:27;0.30;;;0.30;;
15482;SDS011;7843;50.330;7.312;2023-06-26T15:30:54;1.48;;;0.95;;
15482;SDS011;7843;50.330;7.312;2023-06-26T15:33:21;0.50;;;0.45;;